createdAt,value
2019-03-05T00:01:42.990Z,82.04
2019-03-05T00:04:13.479Z,81.95
2019-03-05T00:06:43.978Z,82.25
2019-03-05T00:09:22.844Z,82.25
2019-03-05T00:11:53.538Z,81.96
2019-03-05T00:14:24.421Z,81.94
2019-03-05T00:16:54.960Z,82.24
2019-03-05T00:19:25.438Z,82.10
2019-03-05T00:21:55.967Z,81.99
2019-03-05T00:25:01.873Z,82.18
2019-03-05T00:27:37.657Z,81.90
2019-03-05T00:31:00.485Z,81.80
2019-03-05T00:34:19.507Z,82.12
2019-03-05T00:37:25.543Z,82.20
2019-03-05T00:40:37.471Z,82.19
2019-03-05T00:43:13.615Z,82.04
2019-03-05T00:46:26.364Z,82.43
2019-03-05T00:50:02.171Z,82.17
2019-03-05T00:53:13.576Z,82.29
2019-03-05T00:56:16.328Z,82.43
2019-03-05T00:58:57.752Z,82.17
2019-03-05T01:02:10.319Z,82.10
2019-03-05T01:05:30.044Z,82.33
2019-03-05T01:08:00.603Z,82.56
2019-03-05T01:10:31.133Z,82.39
2019-03-05T01:13:01.657Z,82.31
2019-03-05T01:15:32.221Z,82.39
2019-03-05T01:18:02.694Z,82.02
2019-03-05T01:20:33.167Z,81.71
2019-03-05T01:23:03.716Z,81.96
2019-03-05T01:25:34.823Z,82.02
2019-03-05T01:28:06.036Z,81.94
2019-03-05T01:30:57.813Z,81.70
2019-03-05T01:33:32.063Z,81.81
2019-03-05T01:36:07.593Z,81.59
2019-03-05T01:39:00.031Z,81.21
2019-03-05T01:41:31.184Z,80.97
2019-03-05T01:44:01.655Z,81.21
2019-03-05T01:46:32.191Z,81.41
2019-03-05T01:49:02.756Z,81.18
2019-03-05T01:51:33.233Z,81.46
2019-03-05T01:54:03.743Z,81.29
2019-03-05T01:56:34.334Z,81.47
2019-03-05T01:59:04.832Z,81.60
2019-03-05T02:01:35.335Z,81.56
2019-03-05T02:04:06.010Z,81.66
2019-03-05T02:06:36.512Z,81.58
2019-03-05T02:09:09.182Z,81.88
2019-03-05T02:11:39.734Z,81.94
2019-03-05T02:14:10.234Z,81.97
2019-03-05T02:16:40.741Z,82.14
2019-03-05T02:19:40.926Z,81.81
2019-03-05T02:22:31.758Z,81.99
2019-03-05T02:26:04.230Z,82.34
2019-03-05T02:29:07.338Z,82.15
2019-03-05T02:32:36.124Z,82.79
